createdAt,value
2023-03-06T00:01:55.268Z,99672.56
2023-03-06T00:04:55.265Z,99665.94
2023-03-06T00:07:56.293Z,99676.34
2023-03-06T00:10:56.249Z,99674.03
2023-03-06T00:13:56.277Z,99676.16
2023-03-06T00:16:56.241Z,99673.66
2023-03-06T00:19:56.287Z,99665.91
2023-03-06T00:22:56.273Z,99673.66
2023-03-06T00:25:51.363Z,99657.84
2023-03-06T00:28:44.269Z,99648.84
2023-03-06T00:31:44.286Z,99670.28
2023-03-06T00:34:44.242Z,99666.97
2023-03-06T00:37:44.278Z,99664.47
2023-03-06T00:40:44.243Z,99670.63
2023-03-06T00:43:44.271Z,99661.31
2023-03-06T00:46:44.247Z,99651.50
2023-03-06T00:49:44.237Z,99662.22
2023-03-06T00:52:45.296Z,99656.31
2023-03-06T00:55:45.272Z,99643.81
2023-03-06T00:58:45.247Z,99655.00
2023-03-06T01:01:45.294Z,99653.34
2023-03-06T01:04:45.240Z,99653.53
2023-03-06T01:07:45.233Z,99662.25
2023-03-06T01:10:45.269Z,99656.53
2023-03-06T01:13:45.247Z,99664.22
2023-03-06T01:16:46.255Z,99653.94
2023-03-06T01:19:46.236Z,99660.09
2023-03-06T01:22:46.240Z,99665.37
2023-03-06T01:25:47.282Z,99667.34
2023-03-06T01:28:47.259Z,99656.28
2023-03-06T01:31:47.295Z,99650.28
2023-03-06T01:34:47.223Z,99637.19
2023-03-06T01:37:49.231Z,99642.34
2023-03-06T01:40:50.264Z,99605.31
2023-03-06T01:43:54.249Z,99632.97
2023-03-06T01:46:55.249Z,99639.94
2023-03-06T01:49:55.243Z,99631.44
2023-03-06T01:53:03.244Z,99620.91
2023-03-06T01:56:03.281Z,99602.25
2023-03-06T01:59:03.238Z,99625.59
2023-03-06T02:02:03.283Z,99616.31
2023-03-06T02:05:03.231Z,99622.72
2023-03-06T02:08:04.249Z,99615.41
2023-03-06T02:11:19.303Z,99630.31
2023-03-06T02:14:19.237Z,99625.53
2023-03-06T02:17:19.286Z,99645.47
2023-03-06T02:20:37.220Z,99631.03
2023-03-06T02:23:54.274Z,99642.59
2023-03-06T02:26:55.271Z,99640.91
2023-03-06T02:29:55.252Z,99642.09
2023-03-06T02:32:55.270Z,99632.53
2023-03-06T02:36:09.274Z,99674.34
2023-03-06T02:39:09.273Z,99650.06
2023-03-06T02:42:09.296Z,99655.19
2023-03-06T02:45:10.242Z,99657.00
2023-03-06T02:48:10.261Z,99652.00
2023-03-06T02:51:11.241Z,99652.09
2023-03-06T02:54:11.210Z,99656.41
2023-03-06T02:57:11.266Z,99632.00
2023-03-06T03:00:11.261Z,99651.50
2023-03-06T03:03:11.213Z,99648.16
2023-03-06T03:06:11.221Z,99622.34
2023-03-06T03:09:11.240Z,99654.41
2023-03-06T03:12:11.262Z,99642.44
2023-03-06T03:15:11.289Z,99644.66
2023-03-06T03:18:11.254Z,99654.78
2023-03-06T03:21:11.242Z,99648.09
2023-03-06T03:24:13.221Z,99667.97
2023-03-06T03:27:13.220Z,99665.47
2023-03-06T03:30:14.231Z,99665.56
2023-03-06T03:33:14.259Z,99667.34
2023-03-06T03:36:15.219Z,99669.16
2023-03-06T03:39:15.223Z,99669.88
2023-03-06T03:42:15.273Z,99666.31
2023-03-06T03:45:15.264Z,99660.31
2023-03-06T03:48:15.269Z,99654.34
2023-03-06T03:51:23.247Z,99665.50
2023-03-06T03:54:23.243Z,99656.78
2023-03-06T03:57:23.213Z,99640.84
2023-03-06T04:00:24.264Z,99654.66
2023-03-06T04:03:25.266Z,99650.94
2023-03-06T04:06:25.237Z,99648.03
2023-03-06T04:09:25.248Z,99654.81
2023-03-06T04:12:25.218Z,99648.81
2023-03-06T04:15:25.243Z,99625.44
2023-03-06T04:18:26.220Z,99644.72
2023-03-06T04:21:26.227Z,99616.16
2023-03-06T04:24:26.222Z,99633.63
2023-03-06T04:27:27.214Z,99637.03
2023-03-06T04:30:27.230Z,99636.13
2023-03-06T04:33:28.239Z,99603.56
2023-03-06T04:36:39.221Z,99613.72
2023-03-06T04:39:39.239Z,99624.28
2023-03-06T04:42:39.224Z,99621.00
2023-03-06T04:45:41.276Z,99617.59
2023-03-06T04:48:43.240Z,99608.31
2023-03-06T04:51:43.228Z,99599.31
2023-03-06T04:54:43.253Z,99609.41
2023-03-06T04:57:43.216Z,99593.19
2023-03-06T05:00:43.382Z,99615.16
2023-03-06T05:03:43.249Z,99598.09
2023-03-06T05:06:43.270Z,99610.72
2023-03-06T05:09:43.217Z,99621.03
2023-03-06T05:12:43.220Z,99606.63
2023-03-06T05:15:43.240Z,99599.06
2023-03-06T05:18:43.256Z,99624.88
2023-03-06T05:21:43.239Z,99628.19
2023-03-06T05:24:43.251Z,99591.06
2023-03-06T05:27:43.251Z,99615.28
2023-03-06T05:30:43.199Z,99640.34
2023-03-06T05:33:45.246Z,99633.88
2023-03-06T05:36:45.238Z,99637.09
2023-03-06T05:39:45.223Z,99633.28
2023-03-06T05:42:45.240Z,99632.12
2023-03-06T05:45:45.338Z,99615.94
2023-03-06T05:48:46.764Z,99641.59
2023-03-06T05:51:46.266Z,99648.31
2023-03-06T05:54:47.234Z,99645.31
2023-03-06T05:57:47.273Z,99644.28
2023-03-06T06:00:47.242Z,99644.06
2023-03-06T06:03:47.326Z,99647.22
2023-03-06T06:06:47.210Z,99656.50
2023-03-06T06:09:47.252Z,99654.59
2023-03-06T06:12:47.256Z,99653.06
2023-03-06T06:15:47.310Z,99622.09
2023-03-06T06:18:47.245Z,99658.50
2023-03-06T06:21:48.205Z,99671.03
2023-03-06T06:24:48.277Z,99647.19
2023-03-06T06:27:48.245Z,99672.59
2023-03-06T06:30:48.286Z,99651.94
2023-03-06T06:33:49.237Z,99660.66
2023-03-06T06:36:51.006Z,99681.09
2023-03-06T06:39:52.298Z,99685.97
2023-03-06T06:42:53.272Z,99684.75
2023-03-06T06:46:02.348Z,99692.06
2023-03-06T06:49:11.271Z,99678.84
2023-03-06T06:52:11.264Z,99671.84
2023-03-06T06:55:13.283Z,99679.91
2023-03-06T06:58:13.297Z,99694.13
2023-03-06T07:01:24.233Z,99695.16
2023-03-06T07:04:27.263Z,99694.50
2023-03-06T07:07:27.241Z,99642.44
2023-03-06T07:10:38.233Z,99703.44
2023-03-06T07:13:38.220Z,99673.53
2023-03-06T07:16:38.228Z,99697.88
2023-03-06T07:19:38.736Z,99663.81
2023-03-06T07:22:50.315Z,99693.47
2023-03-06T07:25:51.232Z,99702.28
2023-03-06T07:28:52.870Z,99704.44
2023-03-06T07:31:54.280Z,99679.88
2023-03-06T07:35:06.178Z,99698.16
2023-03-06T07:38:14.260Z,99690.94
2023-03-06T07:41:21.966Z,99707.44
2023-03-06T07:44:22.240Z,99688.06
2023-03-06T07:47:22.222Z,99705.66
2023-03-06T07:50:23.254Z,99685.69
2023-03-06T07:53:23.258Z,99700.50
2023-03-06T07:56:25.798Z,99701.84
2023-03-06T07:59:25.206Z,99711.09
2023-03-06T08:02:26.222Z,99706.66
2023-03-06T08:05:28.222Z,99709.09
2023-03-06T08:08:28.222Z,99695.91
2023-03-06T08:11:29.215Z,99715.66
2023-03-06T08:14:29.279Z,99712.69
2023-03-06T08:17:29.253Z,99722.53
2023-03-06T08:20:29.238Z,99717.78
2023-03-06T08:23:29.277Z,99722.97
2023-03-06T08:26:40.183Z,99730.31
2023-03-06T08:29:41.240Z,99726.47
2023-03-06T08:32:41.287Z,99719.09
2023-03-06T08:35:41.274Z,99736.66
2023-03-06T08:38:41.194Z,99711.87
2023-03-06T08:41:41.217Z,99734.44
2023-03-06T08:44:41.190Z,99724.63
2023-03-06T08:47:41.230Z,99732.03
2023-03-06T08:50:41.207Z,99714.78
2023-03-06T08:53:43.498Z,99694.25
2023-03-06T08:56:46.221Z,99734.84
2023-03-06T08:59:46.244Z,99727.97
2023-03-06T09:02:46.355Z,99720.28
2023-03-06T09:05:46.274Z,99722.28
2023-03-06T09:08:49.215Z,99716.03
2023-03-06T09:11:49.248Z,99743.59
2023-03-06T09:14:49.222Z,99748.63
2023-03-06T09:17:49.370Z,99743.44
2023-03-06T09:20:49.242Z,99735.63
2023-03-06T09:23:50.220Z,99740.59
2023-03-06T09:26:51.695Z,99754.16
2023-03-06T09:29:51.246Z,99729.50
2023-03-06T09:32:51.254Z,99742.84
2023-03-06T09:35:57.297Z,99761.72
2023-03-06T09:38:57.248Z,99740.56
2023-03-06T09:41:57.216Z,99750.28
2023-03-06T09:45:08.281Z,99754.69
2023-03-06T09:48:11.306Z,99758.66
2023-03-06T09:51:16.251Z,99761.78
2023-03-06T09:54:20.228Z,99761.03
2023-03-06T09:56:59.364Z,99738.94
2023-03-06T09:59:50.266Z,99737.47
2023-03-06T10:02:52.380Z,99747.09
2023-03-06T10:05:51.241Z,99749.09
2023-03-06T10:09:17.194Z,99762.06
2023-03-06T10:12:20.240Z,99760.59
2023-03-06T10:15:33.247Z,99758.53
2023-03-06T10:18:33.265Z,99757.91
2023-03-06T10:21:36.230Z,99758.22
2023-03-06T10:24:45.280Z,99758.63
2023-03-06T10:28:04.251Z,99763.13
2023-03-06T10:31:32.539Z,99773.75
2023-03-06T10:34:36.204Z,99767.97
2023-03-06T10:37:36.271Z,99737.16
2023-03-06T10:40:39.541Z,99757.91
2023-03-06T10:43:39.257Z,99755.41
2023-03-06T10:46:44.304Z,99734.53
2023-03-06T10:49:49.242Z,99751.00
2023-03-06T10:52:49.209Z,99741.81
2023-03-06T10:55:51.436Z,99755.66
2023-03-06T10:58:53.263Z,99736.84
2023-03-06T11:01:55.373Z,99744.94
2023-03-06T11:05:00.294Z,99721.16
2023-03-06T11:08:16.351Z,99736.34
2023-03-06T11:11:13.352Z,99737.72
2023-03-06T11:14:13.202Z,99713.88
2023-03-06T11:17:13.217Z,99716.25
2023-03-06T11:20:30.319Z,99716.97
2023-03-06T11:23:57.321Z,99729.91
2023-03-06T11:27:00.193Z,99737.03
2023-03-06T11:30:02.288Z,99734.44
2023-03-06T11:33:10.216Z,99728.16
2023-03-06T11:36:13.222Z,99723.34
2023-03-06T11:39:15.221Z,99711.53
2023-03-06T11:42:40.210Z,99710.97
2023-03-06T11:45:56.242Z,99720.22
2023-03-06T11:49:01.314Z,99699.62
2023-03-06T11:52:05.237Z,99713.81
2023-03-06T11:55:08.202Z,99709.09
2023-03-06T11:58:27.235Z,99705.56
2023-03-06T12:02:12.326Z,99705.44
2023-03-06T12:05:54.211Z,99708.00
2023-03-06T12:09:32.261Z,99689.59
2023-03-06T12:12:51.217Z,99692.00
2023-03-06T12:16:01.252Z,99691.81
2023-03-06T12:19:05.205Z,99656.41
2023-03-06T12:22:34.213Z,99686.81
2023-03-06T12:25:53.345Z,99681.25
2023-03-06T12:29:25.253Z,99676.16
2023-03-06T12:32:41.312Z,99677.75
2023-03-06T12:36:03.243Z,99673.81
2023-03-06T12:39:12.236Z,99664.47
2023-03-06T12:42:40.251Z,99662.88
2023-03-06T12:45:51.232Z,99665.59
2023-03-06T12:48:53.195Z,99650.00
2023-03-06T12:51:53.212Z,99661.28
2023-03-06T12:54:55.201Z,99655.03
2023-03-06T12:57:48.195Z,99656.66
2023-03-06T13:00:40.284Z,99645.63
2023-03-06T13:03:36.186Z,99645.78
2023-03-06T13:06:19.299Z,99646.91
2023-03-06T13:09:29.241Z,99645.44
2023-03-06T13:12:36.293Z,99643.00
2023-03-06T13:15:42.209Z,99639.25
2023-03-06T13:18:30.306Z,99638.19
2023-03-06T13:21:48.237Z,99626.09
2023-03-06T13:24:52.611Z,99626.97
2023-03-06T13:28:06.249Z,99612.16
2023-03-06T13:31:10.633Z,99612.16
2023-03-06T13:34:16.239Z,99606.41
2023-03-06T13:37:31.231Z,99614.84
2023-03-06T13:40:48.252Z,99604.69
2023-03-06T13:43:55.246Z,99606.44
2023-03-06T13:46:55.323Z,99595.31
2023-03-06T13:49:59.222Z,99592.91
2023-03-06T13:53:17.216Z,99588.53
2023-03-06T13:56:39.201Z,99587.59
2023-03-06T14:00:09.645Z,99577.88
2023-03-06T14:03:24.504Z,99582.31
2023-03-06T14:06:50.251Z,99581.94
2023-03-06T14:09:58.245Z,99576.13
2023-03-06T14:13:04.264Z,99554.31
2023-03-06T14:16:08.202Z,99570.19
2023-03-06T14:19:10.459Z,99568.44
2023-03-06T14:22:04.194Z,99568.22
2023-03-06T14:25:04.242Z,99551.66
2023-03-06T14:28:13.738Z,99565.16
2023-03-06T14:31:16.296Z,99566.00
2023-03-06T14:34:21.251Z,99567.41
2023-03-06T14:37:33.223Z,99568.19
2023-03-06T14:40:39.231Z,99554.56
2023-03-06T14:43:41.253Z,99535.69
2023-03-06T14:46:41.261Z,99549.13
2023-03-06T14:49:41.227Z,99539.94
2023-03-06T14:52:41.203Z,99558.66
2023-03-06T14:55:42.221Z,99540.62
2023-03-06T14:59:15.237Z,99542.28
2023-03-06T15:02:18.244Z,99554.09
2023-03-06T15:05:21.215Z,99549.38
2023-03-06T15:08:22.197Z,99548.66
2023-03-06T15:11:22.209Z,99549.31
2023-03-06T15:14:31.222Z,99521.25
2023-03-06T15:17:31.196Z,99539.13
2023-03-06T15:20:49.221Z,99540.22
2023-03-06T15:23:54.194Z,99551.53
2023-03-06T15:26:54.205Z,99531.62
2023-03-06T15:29:54.212Z,99532.25
2023-03-06T15:32:54.186Z,99538.66
2023-03-06T15:35:54.195Z,99536.16
2023-03-06T15:38:59.241Z,99531.88
2023-03-06T15:41:59.206Z,99533.38
2023-03-06T15:45:09.235Z,99534.41
2023-03-06T15:48:09.179Z,99525.59
2023-03-06T15:51:09.240Z,99526.88
2023-03-06T15:54:12.221Z,99516.31
2023-03-06T15:57:12.189Z,99501.53
2023-03-06T16:00:27.039Z,99497.78
2023-03-06T16:03:27.252Z,99515.47
2023-03-06T16:06:32.187Z,99516.31
2023-03-06T16:09:32.234Z,99517.44
2023-03-06T16:12:34.197Z,99495.19
2023-03-06T16:15:39.210Z,99507.25
2023-03-06T16:18:39.195Z,99465.22
2023-03-06T16:21:39.176Z,99492.59
2023-03-06T16:24:39.257Z,99493.06
2023-03-06T16:27:39.194Z,99486.12
2023-03-06T16:30:45.284Z,99477.59
2023-03-06T16:33:45.236Z,99476.28
2023-03-06T16:36:45.191Z,99462.78
2023-03-06T16:39:45.181Z,99468.81
2023-03-06T16:42:45.233Z,99457.22
2023-03-06T16:45:45.286Z,99455.34
2023-03-06T16:48:45.214Z,99455.62
2023-03-06T16:51:47.192Z,99452.19
2023-03-06T16:54:47.184Z,99454.84
2023-03-06T16:57:47.182Z,99444.47
2023-03-06T17:00:47.171Z,99453.38
2023-03-06T17:03:48.172Z,99440.94
2023-03-06T17:06:48.229Z,99417.69
2023-03-06T17:09:41.246Z,99452.59
2023-03-06T17:12:27.178Z,99457.50
2023-03-06T17:15:27.234Z,99447.88
2023-03-06T17:18:27.202Z,99445.84
2023-03-06T17:21:28.234Z,99440.41
2023-03-06T17:24:28.217Z,99432.91
2023-03-06T17:27:28.193Z,99423.56
2023-03-06T17:30:28.214Z,99422.66
2023-03-06T17:33:28.172Z,99413.38
2023-03-06T17:36:29.194Z,99387.94
2023-03-06T17:39:29.168Z,99402.84
2023-03-06T17:42:29.186Z,99402.03
2023-03-06T17:45:29.175Z,99396.09
2023-03-06T17:48:29.186Z,99396.09
2023-03-06T17:51:29.167Z,99390.72
2023-03-06T17:54:29.234Z,99390.84
2023-03-06T17:57:29.222Z,99391.56
2023-03-06T18:00:29.194Z,99373.91
2023-03-06T18:03:29.206Z,99385.47
2023-03-06T18:06:30.298Z,99371.88
2023-03-06T18:09:30.185Z,99387.41
2023-03-06T18:12:30.225Z,99376.22
2023-03-06T18:15:30.171Z,99377.03
2023-03-06T18:18:30.180Z,99378.78
2023-03-06T18:21:30.230Z,99381.31
2023-03-06T18:24:30.176Z,99372.16
2023-03-06T18:27:30.171Z,99387.88
2023-03-06T18:30:30.172Z,99380.75
2023-03-06T18:33:30.198Z,99378.63
2023-03-06T18:36:30.252Z,99373.34
2023-03-06T18:39:30.214Z,99374.84
2023-03-06T18:42:31.212Z,99372.75
2023-03-06T18:45:31.237Z,99362.09
2023-03-06T18:48:31.166Z,99366.16
2023-03-06T18:51:31.169Z,99364.38
2023-03-06T18:54:32.193Z,99365.22
2023-03-06T18:57:32.209Z,99364.69
2023-03-06T19:00:32.192Z,99361.25
2023-03-06T19:03:32.210Z,99378.72
2023-03-06T19:06:32.225Z,99348.56
2023-03-06T19:09:32.214Z,99374.56
2023-03-06T19:12:32.228Z,99371.97
2023-03-06T19:15:32.176Z,99366.06
2023-03-06T19:18:32.228Z,99351.25
2023-03-06T19:21:34.164Z,99357.06
2023-03-06T19:24:34.228Z,99357.25
2023-03-06T19:27:34.187Z,99345.44
2023-03-06T19:30:34.200Z,99346.25
2023-03-06T19:33:27.224Z,99341.53
2023-03-06T19:36:16.168Z,99325.16
2023-03-06T19:39:19.217Z,99334.97
2023-03-06T19:42:19.176Z,99327.66
2023-03-06T19:45:13.243Z,99320.13
2023-03-06T19:47:55.438Z,99324.69
2023-03-06T19:50:42.240Z,99313.13
2023-03-06T19:53:28.191Z,99336.22
2023-03-06T19:56:40.231Z,99320.88
2023-03-06T19:59:40.227Z,99337.81
2023-03-06T20:02:41.198Z,99360.81
2023-03-06T20:05:41.253Z,99361.56
2023-03-06T20:08:41.205Z,99367.22
2023-03-06T20:11:42.180Z,99357.03
2023-03-06T20:14:42.238Z,99349.62
2023-03-06T20:17:42.217Z,99358.41
2023-03-06T20:20:44.180Z,99349.25
2023-03-06T20:23:44.224Z,99344.34
2023-03-06T20:26:45.170Z,99323.78
2023-03-06T20:29:45.211Z,99326.09
2023-03-06T20:32:45.168Z,99309.28
2023-03-06T20:35:45.235Z,99324.44
2023-03-06T20:38:45.171Z,99344.97
2023-03-06T20:41:46.165Z,99358.25
2023-03-06T20:44:46.174Z,99354.72
2023-03-06T20:47:46.162Z,99351.81
2023-03-06T20:50:46.230Z,99347.06
2023-03-06T20:53:46.172Z,99348.31
2023-03-06T20:56:47.178Z,99348.56
2023-03-06T20:59:47.168Z,99320.34
2023-03-06T21:02:47.168Z,99344.91
2023-03-06T21:05:47.178Z,99346.25
2023-03-06T21:08:47.236Z,99341.50
2023-03-06T21:11:48.178Z,99336.78
2023-03-06T21:14:48.179Z,99340.50
2023-03-06T21:17:41.167Z,99307.91
2023-03-06T21:20:41.185Z,99344.44
2023-03-06T21:23:41.207Z,99348.09
2023-03-06T21:26:43.163Z,99348.34
2023-03-06T21:29:43.217Z,99345.25
2023-03-06T21:32:43.223Z,99317.97
2023-03-06T21:35:43.245Z,99341.41
2023-03-06T21:38:43.164Z,99338.81
2023-03-06T21:41:44.195Z,99326.78
2023-03-06T21:44:44.167Z,99345.13
2023-03-06T21:47:47.227Z,99345.22
2023-03-06T21:50:47.171Z,99353.87
2023-03-06T21:53:47.195Z,99354.13
2023-03-06T21:56:47.216Z,99354.13
2023-03-06T21:59:47.204Z,99359.44
2023-03-06T22:02:47.201Z,99357.88
2023-03-06T22:05:47.171Z,99361.34
2023-03-06T22:08:47.223Z,99363.09
2023-03-06T22:11:47.206Z,99375.16
2023-03-06T22:14:47.218Z,99375.16
2023-03-06T22:17:48.211Z,99370.78
2023-03-06T22:20:48.180Z,99364.62
2023-03-06T22:23:48.166Z,99357.88
2023-03-06T22:26:41.169Z,99360.75
2023-03-06T22:29:27.210Z,99359.31
2023-03-06T22:32:27.165Z,99347.13
2023-03-06T22:35:27.190Z,99370.13
2023-03-06T22:38:27.194Z,99369.37
2023-03-06T22:41:29.226Z,99372.31
2023-03-06T22:44:31.157Z,99355.63
2023-03-06T22:47:31.182Z,99379.75
2023-03-06T22:50:31.165Z,99379.00
2023-03-06T22:53:31.194Z,99363.13
2023-03-06T22:56:33.190Z,99376.56
2023-03-06T22:59:33.191Z,99379.31
2023-03-06T23:02:33.157Z,99379.25
2023-03-06T23:05:33.213Z,99381.28
2023-03-06T23:08:33.182Z,99371.88
2023-03-06T23:11:34.156Z,99366.78
2023-03-06T23:14:56.331Z,99374.69
2023-03-06T23:18:14.162Z,99376.56
2023-03-06T23:21:34.180Z,99363.63
2023-03-06T23:24:52.152Z,99369.59
2023-03-06T23:27:52.181Z,99361.19
2023-03-06T23:30:53.175Z,99366.66
2023-03-06T23:33:53.213Z,99359.91
2023-03-06T23:36:53.144Z,99342.44
2023-03-06T23:39:53.168Z,99367.63
2023-03-06T23:42:53.148Z,99368.37
2023-03-06T23:45:53.240Z,99377.13
2023-03-06T23:48:54.163Z,99372.69
2023-03-06T23:51:54.186Z,99367.63
2023-03-06T23:54:54.185Z,99377.88
2023-03-06T23:57:54.212Z,99378.09
